W63 weather

Lake Country Regional Airport
Clarksville, Virginia, United States

Public forecast

Using degrees Fahrenheit for public forecast. Weather courtesy of forecast.io.

METAR (pilot weather report)

Retrieved 2019/07/22 19:35 UTC (2 minutes ago):

KW63 221935Z AUTO 23010G15KT 10SM CLR 33/20 A2989 RMK AO1

TAF (pilot weather forecast)

Closest forecast is Danville Regional Airport, 37.4 nm (69.3 km) W. Retrieved 2019/07/22 18:42 UTC (55 minutes ago):

TAF KDAN 221740Z 2218/2318 23011G19KT P6SM VCSH BKN090 FM222100 23010G18KT 5SM BR BKN090 TEMPO 2221/2222 2SM SHRA OVC006 FM222300 26008KT 3SM SHRA VCTS BKN090CB FM230600 22005KT 3SM BR OVC050 FM231000 24005KT 3SM SHRA OVC008